sensor_id;sensor_type;location;lat;lon;timestamp;P1;durP1;ratioP1;P2;durP2;ratioP2
20415;SDS011;10367;52.202;5.996;2023-02-17T00:01:36;37.43;;;19.97;;
20415;SDS011;10367;52.202;5.996;2023-02-17T00:04:06;28.07;;;16.70;;
20415;SDS011;10367;52.202;5.996;2023-02-17T00:06:35;39.47;;;19.63;;
20415;SDS011;10367;52.202;5.996;2023-02-17T00:09:03;26.97;;;16.33;;
20415;SDS011;10367;52.202;5.996;2023-02-17T00:11:33;35.63;;;19.13;;
20415;SDS011;10367;52.202;5.996;2023-02-17T00:14:01;31.87;;;17.83;;
20415;SDS011;10367;52.202;5.996;2023-02-17T00:16:30;34.70;;;18.27;;
20415;SDS011;10367;52.202;5.996;2023-02-17T00:18:59;27.73;;;15.70;;
20415;SDS011;10367;52.202;5.996;2023-02-17T00:21:53;28.40;;;17.00;;
20415;SDS011;10367;52.202;5.996;2023-02-17T00:24:23;29.10;;;18.07;;
20415;SDS011;10367;52.202;5.996;2023-02-17T00:26:53;32.90;;;18.40;;
20415;SDS011;10367;52.202;5.996;2023-02-17T00:29:22;33.50;;;18.27;;
20415;SDS011;10367;52.202;5.996;2023-02-17T00:31:51;32.47;;;18.57;;
20415;SDS011;10367;52.202;5.996;2023-02-17T00:34:20;28.27;;;17.40;;
20415;SDS011;10367;52.202;5.996;2023-02-17T00:36:49;27.37;;;17.53;;
20415;SDS011;10367;52.202;5.996;2023-02-17T00:39:19;27.87;;;18.40;;
20415;SDS011;10367;52.202;5.996;2023-02-17T00:41:48;31.13;;;17.87;;
20415;SDS011;10367;52.202;5.996;2023-02-17T00:44:20;30.70;;;18.10;;
20415;SDS011;10367;52.202;5.996;2023-02-17T00:46:49;27.90;;;16.93;;
20415;SDS011;10367;52.202;5.996;2023-02-17T00:49:19;30.07;;;17.97;;
20415;SDS011;10367;52.202;5.996;2023-02-17T00:51:49;30.07;;;18.57;;
20415;SDS011;10367;52.202;5.996;2023-02-17T00:54:20;39.07;;;20.97;;
20415;SDS011;10367;52.202;5.996;2023-02-17T00:56:48;27.40;;;17.43;;
20415;SDS011;10367;52.202;5.996;2023-02-17T00:59:17;33.10;;;19.07;;
20415;SDS011;10367;52.202;5.996;2023-02-17T01:01:46;28.03;;;17.07;;
20415;SDS011;10367;52.202;5.996;2023-02-17T01:04:14;29.80;;;18.00;;
20415;SDS011;10367;52.202;5.996;2023-02-17T01:06:43;32.17;;;20.00;;
20415;SDS011;10367;52.202;5.996;2023-02-17T01:09:12;30.10;;;18.40;;
20415;SDS011;10367;52.202;5.996;2023-02-17T01:11:43;34.33;;;19.50;;
20415;SDS011;10367;52.202;5.996;2023-02-17T01:14:12;35.20;;;19.37;;
20415;SDS011;10367;52.202;5.996;2023-02-17T01:16:43;28.37;;;18.83;;
20415;SDS011;10367;52.202;5.996;2023-02-17T01:19:14;27.33;;;16.83;;
20415;SDS011;10367;52.202;5.996;2023-02-17T01:21:46;28.67;;;17.97;;
20415;SDS011;10367;52.202;5.996;2023-02-17T01:24:14;29.17;;;17.37;;
20415;SDS011;10367;52.202;5.996;2023-02-17T01:26:44;34.67;;;19.43;;
20415;SDS011;10367;52.202;5.996;2023-02-17T01:29:13;31.20;;;19.53;;
20415;SDS011;10367;52.202;5.996;2023-02-17T01:31:42;29.13;;;18.73;;
20415;SDS011;10367;52.202;5.996;2023-02-17T01:34:10;30.77;;;19.27;;
20415;SDS011;10367;52.202;5.996;2023-02-17T01:36:39;39.63;;;21.03;;
20415;SDS011;10367;52.202;5.996;2023-02-17T01:39:08;33.63;;;19.10;;
20415;SDS011;10367;52.202;5.996;2023-02-17T01:41:39;35.30;;;19.90;;
20415;SDS011;10367;52.202;5.996;2023-02-17T01:44:12;32.73;;;19.87;;
20415;SDS011;10367;52.202;5.996;2023-02-17T01:46:43;31.90;;;19.47;;
20415;SDS011;10367;52.202;5.996;2023-02-17T01:49:17;34.27;;;19.90;;
20415;SDS011;10367;52.202;5.996;2023-02-17T01:51:58;30.30;;;18.40;;
20415;SDS011;10367;52.202;5.996;2023-02-17T01:54:33;43.33;;;22.53;;
20415;SDS011;10367;52.202;5.996;2023-02-17T01:57:06;35.27;;;19.33;;
20415;SDS011;10367;52.202;5.996;2023-02-17T01:59:37;38.47;;;20.93;;
20415;SDS011;10367;52.202;5.996;2023-02-17T02:02:07;31.73;;;19.87;;
20415;SDS011;10367;52.202;5.996;2023-02-17T02:04:37;38.87;;;20.93;;
20415;SDS011;10367;52.202;5.996;2023-02-17T02:07:09;30.00;;;18.20;;
20415;SDS011;10367;52.202;5.996;2023-02-17T02:09:43;40.87;;;20.63;;
20415;SDS011;10367;52.202;5.996;2023-02-17T02:12:18;30.70;;;18.63;;
20415;SDS011;10367;52.202;5.996;2023-02-17T02:14:49;31.13;;;20.30;;
20415;SDS011;10367;52.202;5.996;2023-02-17T02:17:22;26.77;;;17.97;;
20415;SDS011;10367;52.202;5.996;2023-02-17T02:20:21;31.87;;;18.97;;
20415;SDS011;10367;52.202;5.996;2023-02-17T02:26:31;28.10;;;16.23;;
20415;SDS011;10367;52.202;5.996;2023-02-17T02:29:29;31.17;;;18.00;;
20415;SDS011;10367;52.202;5.996;2023-02-17T02:32:24;33.93;;;17.37;;
20415;SDS011;10367;52.202;5.996;2023-02-17T02:35:09;35.47;;;18.57;;
20415;SDS011;10367;52.202;5.996;2023-02-17T02:37:43;36.60;;;19.43;;
20415;SDS011;10367;52.202;5.996;2023-02-17T02:40:15;31.67;;;18.17;;
20415;SDS011;10367;52.202;5.996;2023-02-17T02:42:46;37.07;;;19.13;;
20415;SDS011;10367;52.202;5.996;2023-02-17T02:45:16;29.20;;;16.47;;
20415;SDS011;10367;52.202;5.996;2023-02-17T02:47:50;39.37;;;18.73;;
20415;SDS011;10367;52.202;5.996;2023-02-17T02:50:20;33.40;;;17.83;;
20415;SDS011;10367;52.202;5.996;2023-02-17T02:52:58;31.27;;;17.67;;
20415;SDS011;10367;52.202;5.996;2023-02-17T02:55:42;43.57;;;20.07;;
20415;SDS011;10367;52.202;5.996;2023-02-17T02:58:19;33.93;;;18.57;;
20415;SDS011;10367;52.202;5.996;2023-02-17T03:00:53;34.37;;;19.00;;
20415;SDS011;10367;52.202;5.996;2023-02-17T03:03:30;32.43;;;17.47;;
20415;SDS011;10367;52.202;5.996;2023-02-17T03:06:04;33.47;;;18.13;;
20415;SDS011;10367;52.202;5.996;2023-02-17T03:08:37;40.00;;;20.03;;
20415;SDS011;10367;52.202;5.996;2023-02-17T03:11:09;37.80;;;19.03;;
20415;SDS011;10367;52.202;5.996;2023-02-17T03:13:39;44.53;;;20.27;;
20415;SDS011;10367;52.202;5.996;2023-02-17T03:16:08;28.40;;;15.23;;
20415;SDS011;10367;52.202;5.996;2023-02-17T03:18:42;27.30;;;14.93;;
20415;SDS011;10367;52.202;5.996;2023-02-17T03:21:11;23.67;;;15.50;;
20415;SDS011;10367;52.202;5.996;2023-02-17T03:23:42;23.10;;;15.37;;
20415;SDS011;10367;52.202;5.996;2023-02-17T03:26:11;27.67;;;15.90;;
20415;SDS011;10367;52.202;5.996;2023-02-17T03:28:40;32.07;;;17.17;;
20415;SDS011;10367;52.202;5.996;2023-02-17T03:31:08;24.00;;;16.13;;
20415;SDS011;10367;52.202;5.996;2023-02-17T03:33:37;35.20;;;17.97;;
20415;SDS011;10367;52.202;5.996;2023-02-17T03:36:07;29.47;;;15.47;;
20415;SDS011;10367;52.202;5.996;2023-02-17T03:38:36;33.63;;;16.07;;
20415;SDS011;10367;52.202;5.996;2023-02-17T03:41:05;27.33;;;15.17;;
20415;SDS011;10367;52.202;5.996;2023-02-17T03:43:33;32.30;;;17.80;;
20415;SDS011;10367;52.202;5.996;2023-02-17T03:46:02;34.33;;;18.03;;
20415;SDS011;10367;52.202;5.996;2023-02-17T03:48:31;43.27;;;20.27;;
20415;SDS011;10367;52.202;5.996;2023-02-17T03:51:09;30.37;;;17.00;;
20415;SDS011;10367;52.202;5.996;2023-02-17T03:53:39;28.57;;;16.47;;
20415;SDS011;10367;52.202;5.996;2023-02-17T03:56:08;32.80;;;17.77;;
20415;SDS011;10367;52.202;5.996;2023-02-17T03:58:37;35.63;;;18.93;;
20415;SDS011;10367;52.202;5.996;2023-02-17T04:01:07;36.93;;;19.40;;
20415;SDS011;10367;52.202;5.996;2023-02-17T04:03:37;36.43;;;18.33;;
20415;SDS011;10367;52.202;5.996;2023-02-17T04:06:07;34.33;;;18.27;;
20415;SDS011;10367;52.202;5.996;2023-02-17T04:08:37;35.80;;;17.80;;
20415;SDS011;10367;52.202;5.996;2023-02-17T04:11:07;31.73;;;18.07;;
20415;SDS011;10367;52.202;5.996;2023-02-17T04:13:37;38.10;;;18.43;;
20415;SDS011;10367;52.202;5.996;2023-02-17T04:16:06;29.50;;;17.37;;
20415;SDS011;10367;52.202;5.996;2023-02-17T04:18:36;40.77;;;18.93;;
20415;SDS011;10367;52.202;5.996;2023-02-17T04:21:05;32.10;;;17.63;;
20415;SDS011;10367;52.202;5.996;2023-02-17T04:23:35;36.53;;;18.93;;
20415;SDS011;10367;52.202;5.996;2023-02-17T04:26:05;31.83;;;18.37;;
20415;SDS011;10367;52.202;5.996;2023-02-17T04:28:36;40.60;;;19.03;;
20415;SDS011;10367;52.202;5.996;2023-02-17T04:31:05;28.17;;;16.63;;
20415;SDS011;10367;52.202;5.996;2023-02-17T04:33:37;38.53;;;18.97;;
20415;SDS011;10367;52.202;5.996;2023-02-17T04:36:05;33.53;;;18.37;;
20415;SDS011;10367;52.202;5.996;2023-02-17T04:38:36;42.23;;;20.20;;
20415;SDS011;10367;52.202;5.996;2023-02-17T04:41:05;31.43;;;17.23;;
20415;SDS011;10367;52.202;5.996;2023-02-17T04:43:34;38.97;;;19.47;;
20415;SDS011;10367;52.202;5.996;2023-02-17T04:46:02;33.37;;;18.30;;
20415;SDS011;10367;52.202;5.996;2023-02-17T04:48:32;37.53;;;19.67;;
20415;SDS011;10367;52.202;5.996;2023-02-17T04:51:00;29.67;;;16.33;;
20415;SDS011;10367;52.202;5.996;2023-02-17T04:53:29;36.07;;;19.40;;
20415;SDS011;10367;52.202;5.996;2023-02-17T04:55:59;36.20;;;17.53;;
20415;SDS011;10367;52.202;5.996;2023-02-17T04:58:28;42.23;;;20.73;;
20415;SDS011;10367;52.202;5.996;2023-02-17T05:00:57;35.63;;;18.10;;
20415;SDS011;10367;52.202;5.996;2023-02-17T05:03:26;28.83;;;16.70;;
20415;SDS011;10367;52.202;5.996;2023-02-17T05:05:55;29.63;;;17.60;;
20415;SDS011;10367;52.202;5.996;2023-02-17T05:08:23;35.13;;;17.27;;
20415;SDS011;10367;52.202;5.996;2023-02-17T05:10:52;27.77;;;15.83;;
20415;SDS011;10367;52.202;5.996;2023-02-17T05:13:22;34.77;;;16.83;;
20415;SDS011;10367;52.202;5.996;2023-02-17T05:15:53;28.50;;;16.77;;
20415;SDS011;10367;52.202;5.996;2023-02-17T05:18:21;30.77;;;18.20;;
20415;SDS011;10367;52.202;5.996;2023-02-17T05:20:50;28.93;;;17.20;;
20415;SDS011;10367;52.202;5.996;2023-02-17T05:23:19;26.87;;;16.57;;
20415;SDS011;10367;52.202;5.996;2023-02-17T05:25:47;30.83;;;16.87;;
20415;SDS011;10367;52.202;5.996;2023-02-17T05:28:16;31.57;;;16.60;;
20415;SDS011;10367;52.202;5.996;2023-02-17T05:30:48;28.33;;;17.50;;
20415;SDS011;10367;52.202;5.996;2023-02-17T05:33:17;29.13;;;16.30;;
20415;SDS011;10367;52.202;5.996;2023-02-17T05:35:46;37.97;;;19.27;;
20415;SDS011;10367;52.202;5.996;2023-02-17T05:38:14;30.67;;;16.60;;
20415;SDS011;10367;52.202;5.996;2023-02-17T05:40:43;39.70;;;19.10;;
20415;SDS011;10367;52.202;5.996;2023-02-17T05:43:12;30.13;;;16.33;;
20415;SDS011;10367;52.202;5.996;2023-02-17T05:45:40;40.23;;;20.30;;
20415;SDS011;10367;52.202;5.996;2023-02-17T05:48:10;30.43;;;16.97;;
20415;SDS011;10367;52.202;5.996;2023-02-17T05:50:39;36.20;;;18.83;;
20415;SDS011;10367;52.202;5.996;2023-02-17T05:53:08;27.97;;;16.70;;
20415;SDS011;10367;52.202;5.996;2023-02-17T05:55:36;35.73;;;19.60;;
20415;SDS011;10367;52.202;5.996;2023-02-17T05:58:05;27.47;;;16.07;;
20415;SDS011;10367;52.202;5.996;2023-02-17T06:00:33;38.80;;;18.73;;
20415;SDS011;10367;52.202;5.996;2023-02-17T06:03:10;34.23;;;17.30;;
20415;SDS011;10367;52.202;5.996;2023-02-17T06:05:41;33.80;;;17.40;;
20415;SDS011;10367;52.202;5.996;2023-02-17T06:08:11;29.07;;;16.30;;
20415;SDS011;10367;52.202;5.996;2023-02-17T06:10:40;35.03;;;18.37;;
20415;SDS011;10367;52.202;5.996;2023-02-17T06:13:09;33.57;;;17.93;;
20415;SDS011;10367;52.202;5.996;2023-02-17T06:15:37;32.33;;;17.27;;
20415;SDS011;10367;52.202;5.996;2023-02-17T06:18:06;38.97;;;18.13;;
20415;SDS011;10367;52.202;5.996;2023-02-17T06:20:36;39.83;;;18.67;;
20415;SDS011;10367;52.202;5.996;2023-02-17T06:23:05;32.93;;;18.27;;
20415;SDS011;10367;52.202;5.996;2023-02-17T06:25:33;37.77;;;17.93;;
20415;SDS011;10367;52.202;5.996;2023-02-17T06:28:02;35.67;;;17.60;;
20415;SDS011;10367;52.202;5.996;2023-02-17T06:30:31;36.37;;;17.60;;
20415;SDS011;10367;52.202;5.996;2023-02-17T06:33:00;35.70;;;16.60;;
20415;SDS011;10367;52.202;5.996;2023-02-17T06:35:28;36.97;;;18.00;;
20415;SDS011;10367;52.202;5.996;2023-02-17T06:37:58;38.73;;;19.00;;
20415;SDS011;10367;52.202;5.996;2023-02-17T06:40:27;37.20;;;19.07;;
20415;SDS011;10367;52.202;5.996;2023-02-17T06:42:56;31.87;;;17.40;;
20415;SDS011;10367;52.202;5.996;2023-02-17T06:45:24;33.57;;;16.93;;
20415;SDS011;10367;52.202;5.996;2023-02-17T06:47:53;34.00;;;16.83;;
20415;SDS011;10367;52.202;5.996;2023-02-17T06:50:22;35.10;;;17.03;;
20415;SDS011;10367;52.202;5.996;2023-02-17T06:52:50;30.57;;;17.07;;
20415;SDS011;10367;52.202;5.996;2023-02-17T06:55:21;32.63;;;17.20;;
20415;SDS011;10367;52.202;5.996;2023-02-17T06:57:50;32.17;;;16.97;;
20415;SDS011;10367;52.202;5.996;2023-02-17T07:00:19;34.80;;;18.23;;
20415;SDS011;10367;52.202;5.996;2023-02-17T07:02:48;41.60;;;19.87;;
20415;SDS011;10367;52.202;5.996;2023-02-17T07:05:17;41.80;;;18.53;;
20415;SDS011;10367;52.202;5.996;2023-02-17T07:07:46;41.40;;;18.83;;
20415;SDS011;10367;52.202;5.996;2023-02-17T07:10:14;30.00;;;16.27;;
20415;SDS011;10367;52.202;5.996;2023-02-17T07:12:44;31.10;;;17.47;;
20415;SDS011;10367;52.202;5.996;2023-02-17T07:15:13;24.03;;;15.20;;
20415;SDS011;10367;52.202;5.996;2023-02-17T07:17:42;28.33;;;16.80;;
20415;SDS011;10367;52.202;5.996;2023-02-17T07:20:11;25.60;;;15.53;;
20415;SDS011;10367;52.202;5.996;2023-02-17T07:22:40;33.30;;;17.10;;
20415;SDS011;10367;52.202;5.996;2023-02-17T07:25:09;25.70;;;15.43;;
20415;SDS011;10367;52.202;5.996;2023-02-17T07:27:37;37.03;;;18.63;;
20415;SDS011;10367;52.202;5.996;2023-02-17T07:30:08;37.90;;;18.07;;
20415;SDS011;10367;52.202;5.996;2023-02-17T07:32:37;32.20;;;17.07;;
20415;SDS011;10367;52.202;5.996;2023-02-17T07:35:06;31.10;;;16.50;;
20415;SDS011;10367;52.202;5.996;2023-02-17T07:37:35;44.53;;;19.63;;
20415;SDS011;10367;52.202;5.996;2023-02-17T07:40:04;30.70;;;16.00;;
20415;SDS011;10367;52.202;5.996;2023-02-17T07:42:33;32.83;;;16.97;;
20415;SDS011;10367;52.202;5.996;2023-02-17T07:45:02;25.87;;;16.00;;
20415;SDS011;10367;52.202;5.996;2023-02-17T07:47:33;24.83;;;15.10;;
20415;SDS011;10367;52.202;5.996;2023-02-17T07:50:01;29.60;;;15.57;;
20415;SDS011;10367;52.202;5.996;2023-02-17T07:52:30;29.77;;;16.17;;
20415;SDS011;10367;52.202;5.996;2023-02-17T07:54:59;30.20;;;17.33;;
20415;SDS011;10367;52.202;5.996;2023-02-17T07:57:28;28.57;;;15.83;;
20415;SDS011;10367;52.202;5.996;2023-02-17T07:59:57;26.63;;;15.57;;
20415;SDS011;10367;52.202;5.996;2023-02-17T08:02:26;35.83;;;17.77;;
20415;SDS011;10367;52.202;5.996;2023-02-17T08:04:56;25.73;;;15.07;;
20415;SDS011;10367;52.202;5.996;2023-02-17T08:07:24;33.77;;;17.70;;
20415;SDS011;10367;52.202;5.996;2023-02-17T08:09:54;27.93;;;16.37;;
20415;SDS011;10367;52.202;5.996;2023-02-17T08:12:40;32.53;;;17.37;;
20415;SDS011;10367;52.202;5.996;2023-02-17T08:15:26;33.97;;;17.37;;
20415;SDS011;10367;52.202;5.996;2023-02-17T08:17:58;23.67;;;15.67;;
20415;SDS011;10367;52.202;5.996;2023-02-17T08:20:29;33.50;;;17.57;;
20415;SDS011;10367;52.202;5.996;2023-02-17T08:23:00;23.87;;;15.17;;
20415;SDS011;10367;52.202;5.996;2023-02-17T08:25:31;25.47;;;16.33;;
20415;SDS011;10367;52.202;5.996;2023-02-17T08:28:00;21.73;;;13.73;;
20415;SDS011;10367;52.202;5.996;2023-02-17T08:30:34;30.13;;;16.23;;
20415;SDS011;10367;52.202;5.996;2023-02-17T08:33:04;28.50;;;16.30;;
20415;SDS011;10367;52.202;5.996;2023-02-17T08:35:34;33.47;;;17.20;;
20415;SDS011;10367;52.202;5.996;2023-02-17T08:38:03;23.43;;;14.63;;
20415;SDS011;10367;52.202;5.996;2023-02-17T08:40:32;29.37;;;16.80;;
20415;SDS011;10367;52.202;5.996;2023-02-17T08:43:01;25.80;;;15.87;;
20415;SDS011;10367;52.202;5.996;2023-02-17T08:45:30;28.27;;;16.53;;
20415;SDS011;10367;52.202;5.996;2023-02-17T08:47:58;24.43;;;15.40;;
20415;SDS011;10367;52.202;5.996;2023-02-17T08:50:27;26.27;;;15.87;;
20415;SDS011;10367;52.202;5.996;2023-02-17T08:52:58;22.30;;;14.67;;
20415;SDS011;10367;52.202;5.996;2023-02-17T08:55:27;23.37;;;15.90;;
20415;SDS011;10367;52.202;5.996;2023-02-17T08:58:09;23.23;;;14.73;;
20415;SDS011;10367;52.202;5.996;2023-02-17T09:00:38;27.63;;;16.13;;
20415;SDS011;10367;52.202;5.996;2023-02-17T09:03:07;19.60;;;14.43;;
20415;SDS011;10367;52.202;5.996;2023-02-17T09:05:36;22.43;;;14.77;;
20415;SDS011;10367;52.202;5.996;2023-02-17T09:08:06;27.37;;;16.33;;
20415;SDS011;10367;52.202;5.996;2023-02-17T09:10:37;22.43;;;15.37;;
20415;SDS011;10367;52.202;5.996;2023-02-17T09:13:06;19.80;;;14.33;;
20415;SDS011;10367;52.202;5.996;2023-02-17T09:15:35;25.30;;;15.73;;
20415;SDS011;10367;52.202;5.996;2023-02-17T09:18:06;22.10;;;15.43;;
20415;SDS011;10367;52.202;5.996;2023-02-17T09:20:35;24.13;;;15.13;;
20415;SDS011;10367;52.202;5.996;2023-02-17T09:23:06;24.67;;;15.90;;
20415;SDS011;10367;52.202;5.996;2023-02-17T09:25:35;27.20;;;15.87;;
20415;SDS011;10367;52.202;5.996;2023-02-17T09:28:04;26.20;;;15.93;;
20415;SDS011;10367;52.202;5.996;2023-02-17T09:30:34;27.20;;;16.60;;
20415;SDS011;10367;52.202;5.996;2023-02-17T09:33:03;21.80;;;14.90;;
20415;SDS011;10367;52.202;5.996;2023-02-17T09:35:32;27.03;;;15.83;;
20415;SDS011;10367;52.202;5.996;2023-02-17T09:38:01;19.83;;;14.63;;
20415;SDS011;10367;52.202;5.996;2023-02-17T09:40:35;22.00;;;15.47;;
20415;SDS011;10367;52.202;5.996;2023-02-17T09:43:09;18.17;;;13.10;;
20415;SDS011;10367;52.202;5.996;2023-02-17T09:45:41;22.93;;;14.50;;
20415;SDS011;10367;52.202;5.996;2023-02-17T09:48:14;16.90;;;13.63;;
20415;SDS011;10367;52.202;5.996;2023-02-17T09:50:47;18.30;;;14.30;;
20415;SDS011;10367;52.202;5.996;2023-02-17T09:53:22;17.07;;;13.73;;
20415;SDS011;10367;52.202;5.996;2023-02-17T09:55:56;22.40;;;14.13;;
20415;SDS011;10367;52.202;5.996;2023-02-17T09:58:30;29.07;;;17.10;;
20415;SDS011;10367;52.202;5.996;2023-02-17T10:01:04;20.07;;;14.90;;
20415;SDS011;10367;52.202;5.996;2023-02-17T10:03:38;22.93;;;14.47;;
20415;SDS011;10367;52.202;5.996;2023-02-17T10:06:12;16.67;;;13.33;;
20415;SDS011;10367;52.202;5.996;2023-02-17T10:08:47;16.60;;;13.50;;
20415;SDS011;10367;52.202;5.996;2023-02-17T10:11:22;15.93;;;13.43;;
20415;SDS011;10367;52.202;5.996;2023-02-17T10:13:56;16.70;;;14.20;;
20415;SDS011;10367;52.202;5.996;2023-02-17T10:16:39;16.97;;;13.83;;
20415;SDS011;10367;52.202;5.996;2023-02-17T10:19:15;14.33;;;12.93;;
20415;SDS011;10367;52.202;5.996;2023-02-17T10:21:49;17.37;;;13.67;;
20415;SDS011;10367;52.202;5.996;2023-02-17T10:24:24;20.57;;;14.17;;
20415;SDS011;10367;52.202;5.996;2023-02-17T10:26:58;17.43;;;13.43;;
20415;SDS011;10367;52.202;5.996;2023-02-17T10:29:39;19.97;;;15.10;;
20415;SDS011;10367;52.202;5.996;2023-02-17T10:32:19;16.73;;;14.20;;
20415;SDS011;10367;52.202;5.996;2023-02-17T10:34:53;17.87;;;14.07;;
20415;SDS011;10367;52.202;5.996;2023-02-17T10:37:32;19.87;;;14.00;;
20415;SDS011;10367;52.202;5.996;2023-02-17T10:40:13;18.90;;;14.33;;
20415;SDS011;10367;52.202;5.996;2023-02-17T10:42:46;23.70;;;15.77;;
20415;SDS011;10367;52.202;5.996;2023-02-17T10:45:20;18.03;;;14.27;;
20415;SDS011;10367;52.202;5.996;2023-02-17T10:47:57;17.63;;;13.70;;
20415;SDS011;10367;52.202;5.996;2023-02-17T10:50:29;15.87;;;13.50;;
20415;SDS011;10367;52.202;5.996;2023-02-17T10:52:58;22.17;;;15.10;;
20415;SDS011;10367;52.202;5.996;2023-02-17T10:55:31;15.50;;;13.43;;
20415;SDS011;10367;52.202;5.996;2023-02-17T10:58:09;17.37;;;13.97;;
20415;SDS011;10367;52.202;5.996;2023-02-17T11:00:44;25.23;;;16.27;;
20415;SDS011;10367;52.202;5.996;2023-02-17T11:03:19;23.57;;;14.07;;
20415;SDS011;10367;52.202;5.996;2023-02-17T11:05:53;20.83;;;15.10;;
20415;SDS011;10367;52.202;5.996;2023-02-17T11:08:33;18.37;;;13.83;;
20415;SDS011;10367;52.202;5.996;2023-02-17T11:11:05;17.73;;;13.70;;
20415;SDS011;10367;52.202;5.996;2023-02-17T11:13:45;21.10;;;14.97;;
20415;SDS011;10367;52.202;5.996;2023-02-17T11:16:31;24.70;;;15.07;;
20415;SDS011;10367;52.202;5.996;2023-02-17T11:19:03;20.30;;;14.60;;
20415;SDS011;10367;52.202;5.996;2023-02-17T11:21:32;20.93;;;15.10;;
20415;SDS011;10367;52.202;5.996;2023-02-17T11:24:03;23.30;;;15.17;;
20415;SDS011;10367;52.202;5.996;2023-02-17T11:26:33;16.20;;;13.97;;
20415;SDS011;10367;52.202;5.996;2023-02-17T11:29:08;15.33;;;12.83;;
20415;SDS011;10367;52.202;5.996;2023-02-17T11:31:37;21.93;;;15.20;;
20415;SDS011;10367;52.202;5.996;2023-02-17T11:34:10;21.57;;;14.73;;
20415;SDS011;10367;52.202;5.996;2023-02-17T11:36:42;24.13;;;15.53;;
20415;SDS011;10367;52.202;5.996;2023-02-17T11:39:21;20.23;;;14.13;;
20415;SDS011;10367;52.202;5.996;2023-02-17T11:41:49;21.93;;;15.60;;
20415;SDS011;10367;52.202;5.996;2023-02-17T11:44:22;22.10;;;15.27;;
20415;SDS011;10367;52.202;5.996;2023-02-17T11:46:58;24.57;;;15.43;;
20415;SDS011;10367;52.202;5.996;2023-02-17T11:49:42;17.30;;;14.17;;
20415;SDS011;10367;52.202;5.996;2023-02-17T11:52:28;18.47;;;14.67;;
20415;SDS011;10367;52.202;5.996;2023-02-17T11:55:09;19.77;;;14.60;;
20415;SDS011;10367;52.202;5.996;2023-02-17T11:57:50;26.27;;;16.73;;
20415;SDS011;10367;52.202;5.996;2023-02-17T12:00:34;22.00;;;14.73;;
20415;SDS011;10367;52.202;5.996;2023-02-17T12:03:24;17.57;;;13.50;;
20415;SDS011;10367;52.202;5.996;2023-02-17T12:06:07;17.97;;;13.87;;
20415;SDS011;10367;52.202;5.996;2023-02-17T12:08:44;18.47;;;14.53;;
20415;SDS011;10367;52.202;5.996;2023-02-17T12:11:22;17.70;;;14.37;;
20415;SDS011;10367;52.202;5.996;2023-02-17T12:14:02;18.80;;;14.57;;
20415;SDS011;10367;52.202;5.996;2023-02-17T12:16:47;21.07;;;14.83;;
20415;SDS011;10367;52.202;5.996;2023-02-17T12:19:32;21.43;;;14.30;;
20415;SDS011;10367;52.202;5.996;2023-02-17T12:22:11;18.50;;;14.47;;
20415;SDS011;10367;52.202;5.996;2023-02-17T12:24:57;22.43;;;15.20;;
20415;SDS011;10367;52.202;5.996;2023-02-17T12:27:51;20.70;;;14.67;;
20415;SDS011;10367;52.202;5.996;2023-02-17T12:30:36;25.90;;;15.73;;
20415;SDS011;10367;52.202;5.996;2023-02-17T12:33:23;18.77;;;13.97;;
20415;SDS011;10367;52.202;5.996;2023-02-17T12:36:00;18.80;;;14.40;;
20415;SDS011;10367;52.202;5.996;2023-02-17T12:38:33;23.47;;;15.10;;
20415;SDS011;10367;52.202;5.996;2023-02-17T12:41:04;20.27;;;13.97;;
20415;SDS011;10367;52.202;5.996;2023-02-17T12:43:37;30.20;;;16.43;;
20415;SDS011;10367;52.202;5.996;2023-02-17T12:46:15;19.43;;;14.23;;
20415;SDS011;10367;52.202;5.996;2023-02-17T12:48:48;24.90;;;16.93;;
20415;SDS011;10367;52.202;5.996;2023-02-17T12:51:22;22.83;;;15.27;;
20415;SDS011;10367;52.202;5.996;2023-02-17T12:53:57;25.43;;;15.50;;
20415;SDS011;10367;52.202;5.996;2023-02-17T12:59:25;23.50;;;15.47;;
20415;SDS011;10367;52.202;5.996;2023-02-17T13:02:00;23.60;;;14.70;;
20415;SDS011;10367;52.202;5.996;2023-02-17T13:04:32;25.60;;;15.07;;
20415;SDS011;10367;52.202;5.996;2023-02-17T13:07:07;24.40;;;15.50;;
20415;SDS011;10367;52.202;5.996;2023-02-17T13:09:53;18.97;;;13.80;;
20415;SDS011;10367;52.202;5.996;2023-02-17T13:12:34;25.27;;;15.73;;
20415;SDS011;10367;52.202;5.996;2023-02-17T13:15:10;20.80;;;14.00;;
20415;SDS011;10367;52.202;5.996;2023-02-17T13:17:55;25.07;;;15.10;;
20415;SDS011;10367;52.202;5.996;2023-02-17T13:20:39;24.47;;;15.40;;
20415;SDS011;10367;52.202;5.996;2023-02-17T13:23:12;22.23;;;15.10;;
20415;SDS011;10367;52.202;5.996;2023-02-17T13:26:00;22.33;;;15.47;;
20415;SDS011;10367;52.202;5.996;2023-02-17T13:28:35;23.83;;;16.23;;
20415;SDS011;10367;52.202;5.996;2023-02-17T13:31:12;25.83;;;15.43;;
20415;SDS011;10367;52.202;5.996;2023-02-17T13:33:46;24.70;;;15.97;;
20415;SDS011;10367;52.202;5.996;2023-02-17T13:36:19;23.57;;;15.37;;
20415;SDS011;10367;52.202;5.996;2023-02-17T13:39:01;23.53;;;15.37;;
20415;SDS011;10367;52.202;5.996;2023-02-17T13:41:43;28.17;;;16.10;;
20415;SDS011;10367;52.202;5.996;2023-02-17T13:44:16;22.47;;;14.80;;
20415;SDS011;10367;52.202;5.996;2023-02-17T13:46:51;24.30;;;15.70;;
20415;SDS011;10367;52.202;5.996;2023-02-17T13:49:22;23.13;;;14.70;;
20415;SDS011;10367;52.202;5.996;2023-02-17T13:51:54;23.90;;;15.27;;
20415;SDS011;10367;52.202;5.996;2023-02-17T13:54:35;26.20;;;16.60;;
20415;SDS011;10367;52.202;5.996;2023-02-17T13:57:04;21.33;;;15.83;;
20415;SDS011;10367;52.202;5.996;2023-02-17T13:59:33;20.93;;;14.83;;
20415;SDS011;10367;52.202;5.996;2023-02-17T14:02:14;23.53;;;16.40;;
20415;SDS011;10367;52.202;5.996;2023-02-17T14:05:04;22.40;;;15.20;;
20415;SDS011;10367;52.202;5.996;2023-02-17T14:07:45;24.40;;;15.93;;
20415;SDS011;10367;52.202;5.996;2023-02-17T14:10:16;24.00;;;15.73;;
20415;SDS011;10367;52.202;5.996;2023-02-17T14:12:46;20.30;;;14.90;;
20415;SDS011;10367;52.202;5.996;2023-02-17T14:15:16;17.90;;;13.67;;
20415;SDS011;10367;52.202;5.996;2023-02-17T14:17:45;28.00;;;16.93;;
20415;SDS011;10367;52.202;5.996;2023-02-17T14:20:28;25.83;;;15.80;;
20415;SDS011;10367;52.202;5.996;2023-02-17T14:23:01;25.50;;;16.47;;
20415;SDS011;10367;52.202;5.996;2023-02-17T14:25:32;25.03;;;15.47;;
20415;SDS011;10367;52.202;5.996;2023-02-17T14:28:02;26.47;;;16.60;;
20415;SDS011;10367;52.202;5.996;2023-02-17T14:30:32;21.23;;;14.00;;
20415;SDS011;10367;52.202;5.996;2023-02-17T14:33:04;21.93;;;14.17;;
20415;SDS011;10367;52.202;5.996;2023-02-17T14:35:34;17.80;;;14.17;;
20415;SDS011;10367;52.202;5.996;2023-02-17T14:38:07;22.60;;;16.60;;
20415;SDS011;10367;52.202;5.996;2023-02-17T14:40:45;22.47;;;15.90;;
20415;SDS011;10367;52.202;5.996;2023-02-17T14:43:14;21.97;;;14.77;;
20415;SDS011;10367;52.202;5.996;2023-02-17T14:45:43;20.50;;;15.60;;
20415;SDS011;10367;52.202;5.996;2023-02-17T14:48:12;28.20;;;16.67;;
20415;SDS011;10367;52.202;5.996;2023-02-17T14:50:41;23.73;;;16.97;;
20415;SDS011;10367;52.202;5.996;2023-02-17T14:53:13;19.50;;;13.80;;
20415;SDS011;10367;52.202;5.996;2023-02-17T14:55:48;22.33;;;15.23;;
20415;SDS011;10367;52.202;5.996;2023-02-17T14:58:20;18.63;;;14.90;;